Aviation Digital Data Service (ADDS)

Output produced by METARs form (0657 UTC 18 February 2018)
found at http://www.aviationweather.gov/adds/metars/
 
KFIG 180654Z AUTO 23005KT 10SM FEW015 SCT060 OVC085 M01/M02 A2999 RMK AO2 SNE47 SLP171 P0000 T10111022
KFIG 180647Z AUTO 23003KT 8SM SCT014 BKN060 OVC080 M01/M02 A2998 RMK AO2 SNE47 P0000 T10111022
KFIG 180609Z AUTO 23004KT 3SM -SN BR SCT003 SCT007 OVC014 M02/M02 A2996 RMK AO2 P0000 T10171022
KFIG 180603Z AUTO 22003KT 2 1/2SM -SN BR SCT003 BKN008 OVC014 M02/M02 A2995 RMK AO2 CIG 005V010 P0000 T10171022
KFIG 180554Z AUTO 21004KT 3SM -SN BR SCT003 BKN008 OVC014 M02/M02 A2995 RMK AO2 SLP159 P0001 60009 T10171022 11017 21017 55001
KFIG 180549Z AUTO 20005KT 3SM -SN BR SCT003 BKN007 OVC014 M02/M02 A2995 RMK AO2 P0001
KFIG 180541Z AUTO 19006KT 2 1/2SM -SN BR FEW003 SCT007 OVC013 M02/M02 A2994 RMK AO2 P0001 T10171022
KFIG 180505Z AUTO 20004KT 1 3/4SM -SN BR SCT006 OVC012 M02/M02 A2994 RMK AO2 P0000 T10171022
KFIG 180454Z AUTO 20003KT 2SM -SN BR BKN006 OVC012 M02/M02 A2994 RMK AO2 CIG 003V009 SLP156 P0001 T10171022 400001089
KFIG 180444Z AUTO 00000KT 1 1/2SM -SN BR OVC005 M02/M02 A2994 RMK AO2 P0001 T10171022
KFIG 180433Z AUTO 00000KT 2 1/2SM -SN BR OVC005 M02/M02 A2994 RMK AO2 P0000 T10171022
KFIG 180413Z AUTO 00000KT 1 1/2SM -SN BR BKN005 OVC010 M02/M02 A2995 RMK AO2 P0000 T10171022
KFIG 180401Z AUTO 00000KT 2SM -SN BR BKN005 OVC010 M02/M02 A2994 RMK AO2 CIG 003V008 P0000 T10171022
KFIG 180354Z AUTO 00000KT 2SM -SN BR SCT005 BKN010 OVC025 M02/M02 A2995 RMK AO2 SLP160 P0001 T10171022
KFIG 180351Z AUTO 00000KT 2SM -SN BR SCT005 BKN010 OVC023 M02/M02 A2995 RMK AO2 P0001
KFIG 180344Z AUTO 00000KT 2 1/2SM -SN BR BKN010 BKN014 OVC018 M02/M02 A2996 RMK AO2 P0001 T10171022
KFIG 180254Z AUTO 00000KT 2 1/2SM -SN BR FEW013 OVC020 M02/M03 A2997 RMK AO2 SLP169 P0002 60006 T10171028 58005
KFIG 180154Z AUTO 00000KT 1 3/4SM -SN BR SCT019 OVC024 M02/M02 A2998 RMK AO2 SLP173 P0003 T10171022
KFIG 180137Z AUTO 00000KT 2SM -SN BR FEW008 BKN020 OVC027 M02/M02 A2999 RMK AO2 P0002 T10171022
KFIG 180118Z AUTO 00000KT 1 1/2SM -SN BR SCT010 BKN016 OVC021 M02/M02 A2999 RMK AO2 P0002 T10171022
KFIG 180054Z AUTO 34003KT 2SM -SN BR FEW017 OVC021 M02/M02 A3000 RMK AO2 SLP179 P0001 T10171022
KFIG 180037Z AUTO 00000KT 2 1/2SM -SN BR BKN017 OVC024 M02/M03 A2999 RMK AO2 P0001 T10171028
KFIG 172354Z AUTO 00000KT 1 1/2SM -SN BR OVC016 M02/M02 A2999 RMK AO2 SLP177 P0002 60014 T10171022 11006 21017 58021
KFIG 172321Z AUTO 00000KT 1SM -SN BR FEW005 SCT010 OVC016 M02/M02 A3001 RMK AO2 P0002 T10171022
KFIG 172254Z AUTO 00000KT 3/4SM -SN BR BKN009 OVC013 M02/M02 A3001 RMK AO2 PRESFR SLP184 P0006 T10171022
KFIG 172235Z AUTO 00000KT 1/2SM SN FZFG BKN009 OVC014 M02/M02 A3003 RMK AO2 P0004 T10171022
KFIG 172211Z AUTO 18004KT 1/4SM SN FZFG VV009 M02/M03 A3004 RMK AO2 P0001 T10171028
KFIG 172154Z AUTO 18004KT 1/2SM -SN FZFG OVC008 M02/M03 A3004 RMK AO2 SLP196 P0006 T10171028
KFIG 172135Z AUTO 00000KT 1/2SM -SN FZFG VV009 M02/M03 A3004 RMK AO2 P0004 T10171028
KFIG 172121Z AUTO 00000KT 1/2SM SN FZFG FEW006 OVC011 M02/M03 A3004 RMK AO2 P0003 T10171028
KFIG 172106Z AUTO 15003KT 1/2SM SN FZFG VV013 M02/M03 A3005 RMK AO2 P0001 T10171028
KFIG 172054Z AUTO 00000KT 3/4SM -SN BR VV016 M02/M03 A3006 RMK AO2 SLP199 P0000 60000 T10171028 56030
KFIG 172002Z AUTO 17007G15KT 150V210 1SM -SN BKN027 OVC036 M01/M04 A3006 RMK AO2 P0000 T10111044
KFIG 171954Z AUTO 14008KT 2 1/2SM -SN BKN029 OVC035 M01/M06 A3006 RMK AO2 SNB51 SLP198 P0000 T10061056
KFIG 171933Z AUTO 17005KT 10SM OVC029 M01/M06 A3009 RMK AO2 T10061061
KFIG 171854Z AUTO 00000KT 10SM OVC030 M01/M07 A3010 RMK AO2 SLP213 T10111067
KFIG 171754Z AUTO 17007KT 10SM CLR M01/M07 A3015 RMK AO2 SLP228 I6000 T10111072 10000 21089 56029
KFIG 171654Z AUTO VRB04KT 10SM CLR M01/M08 A3015 RMK AO2 SLP230 T10061083
KFIG 171554Z AUTO VRB03KT 10SM CLR M02/M09 A3019 RMK AO2 SLP244 T10171089
KFIG 171454Z AUTO VRB05KT 10SM CLR M04/M08 A3024 RMK AO2 SLP260 I3000 T10391083 58010
KFIG 171354Z AUTO 00000KT 10SM CLR M06/M08 A3026 RMK AO2 SLP269 T10561083
KFIG 171254Z AUTO 00000KT 10SM CLR M08/M09 A3027 RMK AO2 SLP274 I1000 T10781094
KFIG 171154Z AUTO 35004KT 10SM CLR M09/M10 A3027 RMK AO2 SLP273 70017 I1001 I6001 T10891100 11039 21089 50001
KFIG 171054Z AUTO 00000KT 10SM CLR M08/M10 A3029 RMK AO2 SLP278 T10781100
KFIG 170954Z AUTO 00000KT 10SM CLR M07/M09 A3029 RMK AO2 SLP277 T10721094
KFIG 170854Z AUTO 00000KT 10SM CLR M06/M10 A3027 RMK AO2 SLP269 T10611100 51002
KFIG 170754Z AUTO 34004KT 10SM FEW027 M06/M10 A3026 RMK AO2 SLP267 T10561100
KFIG 170752Z AUTO 34005KT 10SM SCT027 M06/M10 A3026 RMK AO2
KFIG 170654Z AUTO 28004KT 10SM OVC027 M04/M10 A3026 RMK AO2 SLP264 T10441100
KFIG 170554Z AUTO 27005KT 10SM OVC027 M04/M09 A3023 RMK AO2 SLP255 T10391094 11006 21039 51017
KFIG 170454Z AUTO 26004KT 10SM OVC027 M04/M09 A3022 RMK AO2 SLP248 T10391089 401171039
KFIG 170354Z AUTO 27005KT 10SM OVC027 M03/M09 A3020 RMK AO2 SLP240 T10331089
KFIG 170308Z AUTO 30011KT 10SM BKN027 M03/M09 A3019 RMK AO2 T10281089
KFIG 170254Z AUTO 31011G19KT 10SM FEW029 M03/M08 A3018 RMK AO2 SLP233 T10281083 51025
KFIG 170231Z AUTO 31011G20KT 10SM SCT028 M02/M08 A3018 RMK AO2 T10221078
KFIG 170154Z AUTO 33013G20KT 10SM BKN028 M02/M07 A3016 RMK AO2 SLP225 T10171072
KFIG 170054Z AUTO 31010KT 10SM BKN029 M01/M07 A3013 RMK AO2 SLP216 T10111067
KFIG 162354Z AUTO 32011G16KT 10SM BKN028 OVC033 M01/M06 A3010 RMK AO2 SLP205 T10061061 10039 21006 53045
KFIG 162342Z AUTO 32007KT 10SM BKN028 M01/M06 A3010 RMK AO2 T10061056
KFIG 162323Z AUTO 32011G17KT 10SM SCT028 M01/M06 A3008 RMK AO2 T10061056
KFIG 162254Z AUTO VRB05KT 10SM BKN027 00/M04 A3006 RMK AO2 SLP188 T00001044
KFIG 162215Z AUTO 31007G16KT 10SM OVC030 01/M04 A3003 RMK AO2 T00061039
KFIG 162154Z AUTO 32013G18KT 10SM FEW022 OVC029 01/M04 A3001 RMK AO2 SLP170 T00061039
KFIG 162054Z AUTO 33011G19KT 10SM OVC023 01/M03 A2996 RMK AO2 SLP156 T00111028 53041
KFIG 161954Z AUTO 28009G17KT 10SM OVC019 02/M02 A2992 RMK AO2 SLP138 T00171022